createdAt,value
2023-04-15T00:00:58.226Z,4.94
2023-04-15T00:03:25.170Z,4.98
2023-04-15T00:05:52.007Z,5.03
2023-04-15T00:08:18.505Z,5.06
2023-04-15T00:10:46.493Z,5.12
2023-04-15T00:13:13.123Z,5.14
2023-04-15T00:15:39.575Z,5.06
2023-04-15T00:18:07.383Z,5.09
2023-04-15T00:20:34.265Z,5.08
2023-04-15T00:23:01.679Z,5.08
2023-04-15T00:25:28.381Z,5.03
2023-04-15T00:27:54.825Z,5.02
2023-04-15T00:30:21.359Z,5.02
2023-04-15T00:32:48.908Z,5.00
2023-04-15T00:35:15.422Z,4.97
2023-04-15T00:37:43.650Z,5.02
2023-04-15T00:40:15.681Z,5.09
2023-04-15T00:42:42.194Z,5.12
2023-04-15T00:45:09.074Z,5.17
2023-04-15T00:47:37.131Z,5.18
2023-04-15T00:50:03.910Z,5.18
2023-04-15T00:52:30.476Z,5.13
2023-04-15T00:54:56.939Z,5.10
2023-04-15T00:57:23.447Z,5.04
2023-04-15T00:59:50.133Z,5.05
2023-04-15T01:02:16.811Z,5.04
2023-04-15T01:04:43.518Z,5.07
2023-04-15T01:07:09.999Z,5.08
2023-04-15T01:09:36.476Z,5.08
2023-04-15T01:12:04.053Z,5.07
2023-04-15T01:14:30.692Z,5.05
2023-04-15T01:16:57.515Z,5.07
2023-04-15T01:19:23.975Z,5.07
2023-04-15T01:21:50.665Z,5.11
2023-04-15T01:24:18.131Z,5.13
2023-04-15T01:26:44.686Z,5.10
2023-04-15T01:29:11.553Z,5.05
2023-04-15T01:31:38.553Z,5.03
2023-04-15T01:34:05.087Z,4.97
2023-04-15T01:36:31.569Z,4.98
2023-04-15T01:38:58.221Z,5.02
2023-04-15T01:41:28.130Z,5.00
2023-04-15T01:43:54.960Z,4.97
2023-04-15T01:46:21.507Z,4.95
2023-04-15T01:48:47.987Z,4.92
2023-04-15T01:51:14.451Z,4.95
2023-04-15T01:53:40.996Z,4.94
2023-04-15T01:56:08.070Z,4.97
2023-04-15T01:58:34.642Z,5.02
2023-04-15T02:01:01.855Z,5.02
2023-04-15T02:03:29.598Z,4.96
2023-04-15T02:05:56.659Z,4.97
2023-04-15T02:08:23.178Z,4.96
2023-04-15T02:10:49.737Z,4.98
2023-04-15T02:13:17.021Z,4.95
2023-04-15T02:15:50.106Z,4.97
2023-04-15T02:18:16.807Z,4.98
2023-04-15T02:20:47.054Z,4.97
2023-04-15T02:23:13.765Z,4.96
2023-04-15T02:25:40.437Z,4.93
2023-04-15T02:28:06.919Z,4.88
2023-04-15T02:30:33.825Z,4.82
2023-04-15T02:33:00.998Z,4.71
2023-04-15T02:35:27.681Z,4.66
2023-04-15T02:37:54.261Z,4.49
2023-04-15T02:40:20.716Z,4.40
2023-04-15T02:42:47.228Z,4.40
2023-04-15T02:45:13.761Z,4.36
2023-04-15T02:47:43.910Z,4.35
2023-04-15T02:50:12.615Z,4.34
2023-04-15T02:52:42.402Z,4.31
2023-04-15T02:55:09.669Z,4.29
2023-04-15T02:57:39.359Z,4.32
2023-04-15T03:00:08.134Z,4.35
2023-04-15T03:02:38.116Z,4.37
2023-04-15T03:05:05.887Z,4.35
2023-04-15T03:07:32.365Z,4.32
2023-04-15T03:09:58.812Z,4.35
2023-04-15T03:12:25.257Z,4.36
2023-04-15T03:14:51.728Z,4.37
2023-04-15T03:17:18.239Z,4.39
2023-04-15T03:19:44.697Z,4.36
2023-04-15T03:22:11.212Z,4.35
2023-04-15T03:24:37.700Z,4.34
2023-04-15T03:27:06.283Z,4.33
2023-04-15T03:29:32.806Z,4.34
2023-04-15T03:31:59.308Z,4.35
2023-04-15T03:34:25.758Z,4.37
2023-04-15T03:36:52.248Z,4.36
2023-04-15T03:39:18.698Z,4.37
2023-04-15T03:41:45.230Z,4.38
2023-04-15T03:44:11.712Z,4.40
2023-04-15T03:46:38.308Z,4.37
2023-04-15T03:49:07.111Z,4.35
2023-04-15T03:51:33.636Z,4.32
2023-04-15T03:54:00.167Z,4.32
2023-04-15T03:56:26.980Z,4.27
2023-04-15T03:58:53.516Z,4.28
2023-04-15T04:01:20.055Z,4.28
2023-04-15T04:03:46.688Z,4.29
2023-04-15T04:06:13.221Z,4.29
2023-04-15T04:08:39.741Z,4.31
2023-04-15T04:11:06.581Z,4.31
2023-04-15T04:13:33.101Z,4.31
2023-04-15T04:15:59.609Z,4.31
2023-04-15T04:18:26.116Z,4.30
2023-04-15T04:20:52.617Z,4.23
2023-04-15T04:23:19.063Z,4.20
2023-04-15T04:25:45.538Z,4.26
2023-04-15T04:28:12.153Z,4.27
2023-04-15T04:30:38.817Z,4.24
2023-04-15T04:33:05.350Z,4.18
2023-04-15T04:35:34.773Z,4.09
2023-04-15T04:38:01.439Z,4.04
2023-04-15T04:40:27.878Z,4.07
2023-04-15T04:42:54.405Z,4.09
2023-04-15T04:45:20.942Z,4.06
2023-04-15T04:47:47.941Z,4.02
2023-04-15T04:50:14.506Z,3.97
2023-04-15T04:52:41.128Z,3.98
2023-04-15T04:55:08.538Z,3.98
2023-04-15T04:57:39.400Z,4.02
2023-04-15T05:00:08.469Z,3.99
2023-04-15T05:02:35.353Z,3.96
2023-04-15T05:05:01.895Z,3.97
2023-04-15T05:07:28.382Z,3.97
2023-04-15T05:09:54.826Z,3.97
2023-04-15T05:12:21.559Z,3.96
2023-04-15T05:14:48.064Z,3.96
2023-04-15T05:17:15.229Z,3.99
2023-04-15T05:19:41.733Z,3.98
2023-04-15T05:22:08.329Z,4.01
2023-04-15T05:24:34.786Z,4.01
2023-04-15T05:27:02.008Z,3.98
2023-04-15T05:29:28.482Z,3.99
2023-04-15T05:31:54.937Z,3.96
2023-04-15T05:34:21.654Z,3.90
2023-04-15T05:36:48.159Z,3.88
2023-04-15T05:39:14.605Z,3.87
2023-04-15T05:41:41.126Z,3.85
2023-04-15T05:44:07.624Z,3.89
2023-04-15T05:46:34.195Z,3.92
2023-04-15T05:49:01.043Z,3.92
2023-04-15T05:51:27.816Z,3.93
2023-04-15T05:53:54.284Z,3.93
2023-04-15T05:56:20.829Z,3.91
2023-04-15T05:58:47.326Z,3.98
2023-04-15T06:01:13.784Z,4.08
2023-04-15T06:03:40.410Z,4.15
2023-04-15T06:06:07.685Z,4.26
2023-04-15T06:08:34.174Z,4.38
2023-04-15T06:11:01.033Z,4.38
2023-04-15T06:13:27.522Z,4.46
2023-04-15T06:15:54.179Z,4.51
2023-04-15T06:18:20.663Z,4.59
2023-04-15T06:20:47.130Z,4.64
2023-04-15T06:23:13.580Z,4.72
2023-04-15T06:25:40.041Z,4.74
2023-04-15T06:28:06.725Z,4.73
2023-04-15T06:30:33.218Z,4.72
2023-04-15T06:32:59.943Z,4.67
2023-04-15T06:35:27.457Z,4.72
2023-04-15T06:37:53.910Z,4.75
2023-04-15T06:40:20.457Z,4.78
2023-04-15T06:42:46.942Z,4.77
2023-04-15T06:45:13.434Z,4.89
2023-04-15T06:47:40.720Z,4.94
2023-04-15T06:50:07.588Z,4.89
2023-04-15T06:52:34.065Z,4.90
2023-04-15T06:55:01.967Z,4.92
2023-04-15T06:57:28.756Z,4.89
2023-04-15T06:59:55.408Z,4.84
2023-04-15T07:02:22.116Z,4.90
2023-04-15T07:04:48.874Z,4.96
2023-04-15T07:07:15.703Z,4.98
2023-04-15T07:09:42.768Z,5.06
2023-04-15T07:12:09.218Z,5.19
2023-04-15T07:14:36.390Z,5.28
2023-04-15T07:17:03.246Z,5.27
2023-04-15T07:19:29.739Z,5.27
2023-04-15T07:21:56.604Z,5.18
2023-04-15T07:24:26.601Z,5.07
2023-04-15T07:26:55.094Z,4.95
2023-04-15T07:29:21.558Z,4.89
2023-04-15T07:31:48.011Z,4.88
2023-04-15T07:34:14.681Z,5.05
2023-04-15T07:36:41.576Z,5.05
2023-04-15T07:39:08.107Z,5.12
2023-04-15T07:41:34.728Z,5.16
2023-04-15T07:44:01.248Z,5.02
2023-04-15T07:46:28.432Z,4.98
2023-04-15T07:48:54.917Z,4.93
2023-04-15T07:51:21.469Z,4.76
2023-04-15T07:53:49.403Z,4.69
2023-04-15T07:56:16.143Z,4.53
2023-04-15T07:58:42.839Z,4.56
2023-04-15T08:01:09.302Z,4.53
2023-04-15T08:03:35.858Z,4.58
2023-04-15T08:06:02.432Z,4.62
2023-04-15T08:08:28.896Z,4.66
2023-04-15T08:10:55.378Z,4.72
2023-04-15T08:13:21.843Z,4.59
2023-04-15T08:16:12.983Z,4.52
2023-04-15T08:18:39.458Z,4.59
2023-04-15T08:21:05.972Z,4.58
2023-04-15T08:23:33.452Z,4.61
2023-04-15T08:25:59.935Z,4.70
2023-04-15T08:28:26.395Z,4.75
2023-04-15T08:30:53.055Z,4.83
2023-04-15T08:33:19.500Z,4.77
2023-04-15T08:35:46.560Z,4.76
2023-04-15T08:38:13.027Z,4.74
2023-04-15T08:40:41.758Z,4.87
2023-04-15T08:43:09.852Z,4.95
2023-04-15T08:45:36.413Z,5.11
2023-04-15T08:48:02.899Z,5.26
2023-04-15T08:50:29.358Z,5.40
2023-04-15T08:52:56.006Z,5.55
2023-04-15T08:55:22.463Z,5.55
2023-04-15T08:57:49.274Z,5.56
2023-04-15T09:00:16.072Z,5.77
2023-04-15T09:02:43.160Z,5.80
2023-04-15T09:05:09.874Z,5.91
2023-04-15T09:07:36.646Z,6.05
2023-04-15T09:10:04.132Z,6.05
2023-04-15T09:12:31.355Z,6.16
2023-04-15T09:14:57.801Z,6.45
2023-04-15T09:17:26.567Z,6.62
2023-04-15T09:20:13.289Z,6.78
2023-04-15T09:22:40.738Z,7.00
2023-04-15T09:25:26.691Z,7.28
2023-04-15T09:27:55.209Z,7.40
2023-04-15T09:30:21.724Z,7.40
2023-04-15T09:32:58.626Z,7.66
2023-04-15T09:35:26.171Z,7.96
2023-04-15T09:37:52.752Z,8.09
2023-04-15T09:40:36.085Z,8.45
2023-04-15T09:43:03.487Z,8.81
2023-04-15T09:45:30.150Z,8.84
2023-04-15T09:48:14.593Z,8.75
2023-04-15T09:50:44.213Z,8.61
2023-04-15T09:53:12.300Z,8.29
2023-04-15T09:55:38.849Z,8.10
2023-04-15T09:58:18.808Z,7.91
2023-04-15T10:00:47.157Z,7.77
2023-04-15T10:03:15.481Z,7.67
2023-04-15T10:05:42.072Z,7.50
2023-04-15T10:08:08.548Z,7.46
2023-04-15T10:10:34.995Z,7.56
2023-04-15T10:13:02.579Z,7.53
2023-04-15T10:15:29.180Z,7.62
2023-04-15T10:17:55.794Z,7.72
2023-04-15T10:20:22.347Z,7.70
2023-04-15T10:22:48.908Z,7.81
2023-04-15T10:25:15.660Z,7.89
2023-04-15T10:27:42.234Z,7.95
2023-04-15T10:30:09.189Z,7.87
2023-04-15T10:32:36.380Z,7.63
2023-04-15T10:35:04.166Z,7.77
2023-04-15T10:37:35.592Z,7.76
2023-04-15T10:40:05.544Z,7.50
2023-04-15T10:42:37.847Z,7.44
2023-04-15T10:45:04.761Z,7.45
2023-04-15T10:47:31.668Z,7.42
2023-04-15T10:49:59.242Z,7.48
2023-04-15T10:52:28.030Z,7.39
2023-04-15T10:55:04.494Z,7.40
2023-04-15T10:57:40.422Z,7.37
2023-04-15T11:00:16.593Z,7.21
2023-04-15T11:02:53.380Z,6.88
2023-04-15T11:05:20.776Z,6.72
2023-04-15T11:07:48.636Z,6.61
2023-04-15T11:10:18.051Z,6.60
2023-04-15T11:12:45.014Z,6.37
2023-04-15T11:15:30.321Z,6.36
2023-04-15T11:17:57.761Z,6.34
2023-04-15T11:20:24.533Z,6.42
2023-04-15T11:22:53.137Z,6.52
2023-04-15T11:25:39.512Z,6.39
2023-04-15T11:28:06.262Z,6.44
2023-04-15T11:30:33.865Z,6.37
2023-04-15T11:33:01.689Z,6.34
2023-04-15T11:35:28.521Z,6.12
2023-04-15T11:37:58.505Z,6.13
2023-04-15T11:40:27.146Z,6.26
2023-04-15T11:43:06.366Z,6.44
2023-04-15T11:45:32.892Z,6.47
2023-04-15T11:48:09.472Z,6.32
2023-04-15T11:50:36.770Z,6.26
2023-04-15T11:53:08.688Z,6.41
2023-04-15T11:55:46.986Z,6.50
2023-04-15T11:58:16.398Z,6.57
2023-04-15T12:00:47.916Z,6.65
2023-04-15T12:03:19.191Z,6.63
2023-04-15T12:06:06.206Z,6.37
2023-04-15T12:08:48.407Z,6.36
2023-04-15T12:11:15.956Z,6.62
2023-04-15T12:13:49.256Z,6.79
2023-04-15T12:16:19.577Z,6.79
2023-04-15T12:18:53.320Z,6.93
2023-04-15T12:21:20.593Z,6.77
2023-04-15T12:23:53.496Z,6.73
2023-04-15T12:26:28.233Z,6.67
2023-04-15T12:29:02.067Z,6.67
2023-04-15T12:31:28.603Z,7.20
2023-04-15T12:33:56.138Z,7.32
2023-04-15T12:36:23.514Z,7.33
2023-04-15T12:38:50.430Z,7.33
2023-04-15T12:41:16.928Z,7.30
2023-04-15T12:43:49.232Z,7.35
2023-04-15T12:46:15.842Z,7.39
2023-04-15T12:48:42.536Z,7.16
2023-04-15T12:51:08.991Z,7.10
2023-04-15T12:53:35.642Z,6.86
2023-04-15T12:56:02.269Z,6.81
2023-04-15T12:58:28.822Z,6.72
2023-04-15T13:00:55.316Z,6.75
2023-04-15T13:03:21.924Z,6.89
2023-04-15T13:05:48.503Z,6.84
2023-04-15T13:08:15.009Z,6.91
2023-04-15T13:10:42.437Z,6.94
2023-04-15T13:13:08.986Z,6.95
2023-04-15T13:15:35.502Z,6.83
2023-04-15T13:18:02.125Z,6.70
2023-04-15T13:20:28.658Z,6.51
2023-04-15T13:22:55.195Z,6.47
2023-04-15T13:25:21.773Z,6.58
2023-04-15T13:27:48.255Z,6.60
2023-04-15T13:30:14.765Z,6.72
2023-04-15T13:32:41.248Z,6.69
2023-04-15T13:35:08.150Z,6.69
2023-04-15T13:37:34.616Z,6.69
2023-04-15T13:40:01.660Z,6.81
2023-04-15T13:42:28.165Z,6.95
2023-04-15T13:44:54.704Z,6.96
2023-04-15T13:47:21.365Z,6.98
2023-04-15T13:49:47.884Z,7.13
2023-04-15T13:52:14.375Z,7.10
2023-04-15T13:54:40.910Z,7.11
2023-04-15T13:57:07.474Z,6.87
2023-04-15T13:59:34.959Z,6.63
2023-04-15T14:02:01.718Z,6.55
2023-04-15T14:04:28.418Z,6.34
2023-04-15T14:06:55.075Z,6.08
2023-04-15T14:09:26.158Z,5.83
2023-04-15T14:11:53.016Z,5.79
2023-04-15T14:14:19.490Z,5.86
2023-04-15T14:16:46.084Z,5.80
2023-04-15T14:19:12.792Z,5.68
2023-04-15T14:21:39.290Z,5.70
2023-04-15T14:24:06.048Z,5.74
2023-04-15T14:26:32.574Z,5.77
2023-04-15T14:28:59.038Z,5.76
2023-04-15T14:31:25.629Z,5.65
2023-04-15T14:33:52.256Z,5.55
2023-04-15T14:36:18.730Z,5.59
2023-04-15T14:38:46.145Z,5.62
2023-04-15T14:41:13.940Z,5.73
2023-04-15T14:43:40.530Z,5.64
2023-04-15T14:46:08.345Z,5.47
2023-04-15T14:48:34.923Z,5.39
2023-04-15T14:51:02.564Z,5.32
2023-04-15T14:53:29.038Z,5.41
2023-04-15T14:55:55.526Z,5.57
2023-04-15T14:58:22.355Z,5.68
2023-04-15T15:00:48.811Z,5.72
2023-04-15T15:03:15.759Z,5.60
2023-04-15T15:05:42.981Z,5.63
2023-04-15T15:08:09.568Z,5.58
2023-04-15T15:10:49.498Z,5.57
2023-04-15T15:13:16.494Z,5.53
2023-04-15T15:15:43.022Z,5.48
2023-04-15T15:18:10.382Z,5.44
2023-04-15T15:20:36.923Z,5.48
2023-04-15T15:23:03.363Z,5.42
2023-04-15T15:25:29.921Z,5.42
2023-04-15T15:27:57.538Z,5.19
2023-04-15T15:30:24.102Z,5.11
2023-04-15T15:32:50.765Z,5.14
2023-04-15T15:35:17.330Z,5.18
2023-04-15T15:37:43.790Z,5.20
2023-04-15T15:40:10.779Z,5.25
2023-04-15T15:42:37.305Z,5.30
2023-04-15T15:45:04.093Z,5.31
2023-04-15T15:47:31.039Z,5.27
2023-04-15T15:49:57.561Z,5.23
2023-04-15T15:52:23.998Z,5.24
2023-04-15T15:54:50.490Z,5.29
2023-04-15T15:57:16.974Z,5.28
2023-04-15T15:59:43.678Z,5.29
2023-04-15T16:02:10.801Z,5.26
2023-04-15T16:04:38.166Z,5.26
2023-04-15T16:07:05.051Z,5.22
2023-04-15T16:09:31.950Z,5.17
2023-04-15T16:11:58.650Z,5.17
2023-04-15T16:14:25.944Z,5.10
2023-04-15T16:16:53.014Z,5.06
2023-04-15T16:19:20.603Z,5.12
2023-04-15T16:21:47.678Z,5.14
2023-04-15T16:24:14.554Z,5.12
2023-04-15T16:26:41.540Z,5.12
2023-04-15T16:29:08.097Z,5.16
2023-04-15T16:31:35.504Z,5.04
2023-04-15T16:34:02.523Z,5.02
2023-04-15T16:36:29.064Z,4.95
2023-04-15T16:38:55.913Z,5.06
2023-04-15T16:41:22.505Z,5.13
2023-04-15T16:43:48.972Z,5.25
2023-04-15T16:46:15.652Z,5.34
2023-04-15T16:48:42.211Z,5.40
2023-04-15T16:51:08.659Z,5.39
2023-04-15T16:53:35.381Z,5.32
2023-04-15T16:56:01.884Z,5.36
2023-04-15T16:58:28.792Z,5.56
2023-04-15T17:00:55.362Z,5.73
2023-04-15T17:03:22.023Z,5.91
2023-04-15T17:05:48.663Z,6.13
2023-04-15T17:08:15.122Z,6.29
2023-04-15T17:10:41.645Z,6.29
2023-04-15T17:13:08.158Z,6.20
2023-04-15T17:15:34.860Z,6.12
2023-04-15T17:18:01.967Z,6.14
2023-04-15T17:20:28.573Z,6.09
2023-04-15T17:22:55.057Z,6.01
2023-04-15T17:25:21.706Z,5.95
2023-04-15T17:27:48.183Z,5.93
2023-04-15T17:30:14.654Z,5.91
2023-04-15T17:32:41.177Z,5.84
2023-04-15T17:35:08.075Z,5.76
2023-04-15T17:37:34.581Z,5.68
2023-04-15T17:40:01.238Z,5.55
2023-04-15T17:42:27.751Z,5.40
2023-04-15T17:44:54.218Z,5.21
2023-04-15T17:47:20.732Z,5.09
2023-04-15T17:49:47.689Z,4.99
2023-04-15T17:52:14.276Z,4.71
2023-04-15T17:54:40.794Z,4.47
2023-04-15T17:57:07.263Z,4.24
2023-04-15T17:59:34.076Z,4.16
2023-04-15T18:02:00.825Z,4.08
2023-04-15T18:04:27.539Z,4.02
2023-04-15T18:06:54.264Z,3.96
2023-04-15T18:09:20.907Z,3.93
2023-04-15T18:11:48.658Z,3.93
2023-04-15T18:14:23.567Z,3.88
2023-04-15T18:16:59.867Z,3.79
2023-04-15T18:19:26.381Z,3.74
2023-04-15T18:21:52.930Z,3.65
2023-04-15T18:24:19.466Z,3.57
2023-04-15T18:26:48.766Z,3.44
2023-04-15T18:29:15.532Z,3.34
2023-04-15T18:31:42.081Z,3.29
2023-04-15T18:34:08.604Z,3.22
2023-04-15T18:36:35.062Z,3.14
2023-04-15T18:39:01.625Z,3.05
2023-04-15T18:41:28.118Z,3.01
2023-04-15T18:43:56.018Z,2.97
2023-04-15T18:46:22.488Z,2.95
2023-04-15T18:48:48.946Z,2.87
2023-04-15T18:51:15.567Z,2.71
2023-04-15T18:53:42.052Z,2.54
2023-04-15T18:56:08.511Z,2.46
2023-04-15T18:59:18.470Z,2.42
2023-04-15T19:01:21.490Z,2.38
2023-04-15T19:03:48.011Z,2.39
2023-04-15T19:06:14.495Z,2.44
2023-04-15T19:08:40.946Z,2.52
2023-04-15T19:11:07.415Z,2.54
2023-04-15T19:13:33.890Z,2.54
2023-04-15T19:16:00.425Z,2.58
2023-04-15T19:18:26.958Z,2.59
2023-04-15T19:20:55.781Z,2.68
2023-04-15T19:23:23.037Z,2.75
2023-04-15T19:25:49.649Z,2.78
2023-04-15T19:28:16.149Z,2.77
2023-04-15T19:30:42.798Z,2.75
2023-04-15T19:33:09.261Z,2.74
2023-04-15T19:35:36.060Z,2.77
2023-04-15T19:38:03.181Z,2.81
2023-04-15T19:40:29.681Z,2.81
2023-04-15T19:42:56.127Z,2.81
2023-04-15T19:45:22.619Z,2.85
2023-04-15T19:47:49.233Z,2.84
2023-04-15T19:50:16.889Z,2.84
2023-04-15T19:52:43.406Z,2.85
2023-04-15T19:55:09.957Z,2.83
2023-04-15T19:57:36.473Z,2.80
2023-04-15T20:00:03.230Z,2.80
2023-04-15T20:02:29.927Z,2.81
2023-04-15T20:04:56.519Z,2.85
2023-04-15T20:07:23.034Z,2.89
2023-04-15T20:09:51.597Z,2.89
2023-04-15T20:12:50.206Z,2.89
2023-04-15T20:15:06.238Z,2.90
2023-04-15T20:17:33.453Z,2.91
2023-04-15T20:19:59.983Z,2.93
2023-04-15T20:22:26.495Z,2.96
2023-04-15T20:24:52.945Z,2.97
2023-04-15T20:27:20.577Z,2.98
2023-04-15T20:29:47.103Z,3.00
2023-04-15T20:32:13.606Z,2.99
2023-04-15T20:34:40.518Z,3.02
2023-04-15T20:37:07.318Z,3.01
2023-04-15T20:39:34.063Z,3.03
2023-04-15T20:42:01.463Z,3.10
2023-04-15T20:44:27.990Z,3.16
2023-04-15T20:46:54.489Z,3.17
2023-04-15T20:49:20.994Z,3.16
2023-04-15T20:51:47.575Z,3.20
2023-04-15T20:54:14.647Z,3.20
2023-04-15T20:56:41.108Z,3.22
2023-04-15T20:59:07.742Z,3.23
2023-04-15T21:01:34.300Z,3.26
2023-04-15T21:04:01.141Z,3.30
2023-04-15T21:06:27.665Z,3.32
2023-04-15T21:08:54.139Z,3.34
2023-04-15T21:11:40.637Z,3.37
2023-04-15T21:14:08.522Z,3.33
2023-04-15T21:16:35.103Z,3.33
2023-04-15T21:19:01.639Z,3.33
2023-04-15T21:21:28.442Z,3.30
2023-04-15T21:23:55.235Z,3.33
2023-04-15T21:26:21.750Z,3.31
2023-04-15T21:28:48.252Z,3.27
2023-04-15T21:31:14.723Z,3.21
2023-04-15T21:33:41.190Z,3.18
2023-04-15T21:36:07.729Z,3.09
2023-04-15T21:38:34.317Z,3.01
2023-04-15T21:41:01.612Z,3.02
2023-04-15T21:43:28.066Z,2.97
2023-04-15T21:46:22.035Z,2.97
2023-04-15T21:48:41.315Z,2.98
2023-04-15T21:51:07.789Z,2.88
2023-04-15T21:53:34.850Z,2.85
2023-04-15T21:56:01.644Z,2.86
2023-04-15T21:58:28.118Z,2.92
2023-04-15T22:00:59.918Z,2.96
2023-04-15T22:03:29.393Z,2.98
2023-04-15T22:05:56.186Z,3.01
2023-04-15T22:08:22.643Z,3.03
2023-04-15T22:10:49.111Z,2.98
2023-04-15T22:13:16.231Z,2.99
2023-04-15T22:15:42.846Z,2.98
2023-04-15T22:18:09.366Z,2.95
2023-04-15T22:20:35.869Z,2.96
2023-04-15T22:23:07.521Z,2.94
2023-04-15T22:25:34.610Z,2.98
2023-04-15T22:28:01.682Z,3.00
2023-04-15T22:30:28.131Z,2.96
2023-04-15T22:32:54.610Z,2.89
2023-04-15T22:35:21.271Z,2.86
2023-04-15T22:37:48.202Z,2.83
2023-04-15T22:40:14.723Z,2.80
2023-04-15T22:42:41.239Z,2.77
2023-04-15T22:45:08.100Z,2.77
2023-04-15T22:47:34.576Z,2.79
2023-04-15T22:50:01.178Z,2.71
2023-04-15T22:52:31.011Z,2.68
2023-04-15T22:54:58.154Z,2.65
2023-04-15T22:57:24.688Z,2.65
2023-04-15T22:59:51.352Z,2.66
2023-04-15T23:02:18.032Z,2.64
2023-04-15T23:04:45.302Z,2.62
2023-04-15T23:07:11.955Z,2.64
2023-04-15T23:09:38.974Z,2.65
2023-04-15T23:12:06.264Z,2.66
2023-04-15T23:14:32.743Z,2.68
2023-04-15T23:16:59.195Z,2.73
2023-04-15T23:19:25.700Z,2.74
2023-04-15T23:21:52.507Z,2.76
2023-04-15T23:24:18.958Z,2.74
2023-04-15T23:26:45.545Z,2.77
2023-04-15T23:29:12.164Z,2.85
2023-04-15T23:31:38.746Z,2.93
2023-04-15T23:34:06.388Z,2.98
2023-04-15T23:36:32.919Z,2.96
2023-04-15T23:38:59.363Z,2.93
2023-04-15T23:41:25.920Z,2.90
2023-04-15T23:43:52.387Z,2.88
2023-04-15T23:46:18.878Z,2.88
2023-04-15T23:48:47.681Z,2.88
2023-04-15T23:51:14.156Z,2.89
2023-04-15T23:53:40.713Z,2.88
2023-04-15T23:56:07.515Z,2.86
2023-04-15T23:58:34.662Z,2.85
